Terminal Aerodrome Forecast
Issued by NWS

Home | Current Version | Previous Version | Text Only | Print | Product List | Glossary On
Versions: 1 2 3 4 5 6 7 8 9 10 11 12 13 14 15 16 17
689
FTUS44 KTSA 271014 AAA
TAFFYV
TAF AMD
KFYV 271014Z 2710/2806 00000KT P6SM VCSH SCT040 BKN250
     FM271400 VRB03KT P6SM SCT035 BKN250
     FM271900 19005KT P6SM VCTS SCT050CB BKN100
     FM280100 16003KT P6SM BKN120=

USA.gov is the U.S. government's official web portal to all federal, state and local government web resources and services.